sensor_id;sensor_type;location;lat;lon;timestamp;P1;durP1;ratioP1;P2;durP2;ratioP2
73678;SDS011;61978;52.742;16.962;2023-09-07T00:01:45;14.90;;;7.90;;
73678;SDS011;61978;52.742;16.962;2023-09-07T00:04:12;11.10;;;8.70;;
73678;SDS011;61978;52.742;16.962;2023-09-07T00:06:40;10.00;;;8.10;;
73678;SDS011;61978;52.742;16.962;2023-09-07T00:09:09;11.80;;;8.40;;
73678;SDS011;61978;52.742;16.962;2023-09-07T00:11:37;14.90;;;8.90;;
73678;SDS011;61978;52.742;16.962;2023-09-07T00:14:04;14.10;;;7.80;;
73678;SDS011;61978;52.742;16.962;2023-09-07T00:16:33;13.80;;;9.50;;
73678;SDS011;61978;52.742;16.962;2023-09-07T00:21:29;16.90;;;8.90;;
73678;SDS011;61978;52.742;16.962;2023-09-07T00:23:55;12.10;;;9.10;;
73678;SDS011;61978;52.742;16.962;2023-09-07T00:26:21;10.30;;;8.70;;
73678;SDS011;61978;52.742;16.962;2023-09-07T00:28:47;12.10;;;9.10;;
73678;SDS011;61978;52.742;16.962;2023-09-07T00:31:13;9.90;;;7.90;;
73678;SDS011;61978;52.742;16.962;2023-09-07T00:33:39;12.00;;;8.00;;
73678;SDS011;61978;52.742;16.962;2023-09-07T00:36:05;10.20;;;7.70;;
73678;SDS011;61978;52.742;16.962;2023-09-07T00:38:32;11.90;;;7.80;;
73678;SDS011;61978;52.742;16.962;2023-09-07T00:41:00;15.00;;;8.90;;
73678;SDS011;61978;52.742;16.962;2023-09-07T00:43:26;15.10;;;9.50;;
73678;SDS011;61978;52.742;16.962;2023-09-07T00:45:54;12.40;;;8.70;;
73678;SDS011;61978;52.742;16.962;2023-09-07T00:48:20;15.70;;;10.90;;
73678;SDS011;61978;52.742;16.962;2023-09-07T00:50:49;19.50;;;11.00;;
73678;SDS011;61978;52.742;16.962;2023-09-07T00:53:15;14.50;;;11.40;;
73678;SDS011;61978;52.742;16.962;2023-09-07T00:55:44;17.50;;;9.80;;
73678;SDS011;61978;52.742;16.962;2023-09-07T00:58:10;12.00;;;9.30;;
73678;SDS011;61978;52.742;16.962;2023-09-07T01:00:38;12.70;;;10.00;;
73678;SDS011;61978;52.742;16.962;2023-09-07T01:03:05;11.50;;;9.60;;
73678;SDS011;61978;52.742;16.962;2023-09-07T01:05:39;21.40;;;9.30;;
73678;SDS011;61978;52.742;16.962;2023-09-07T01:08:10;14.70;;;11.30;;
73678;SDS011;61978;52.742;16.962;2023-09-07T01:10:37;13.50;;;10.50;;
73678;SDS011;61978;52.742;16.962;2023-09-07T01:13:04;15.20;;;11.00;;
73678;SDS011;61978;52.742;16.962;2023-09-07T01:15:30;19.80;;;11.60;;
73678;SDS011;61978;52.742;16.962;2023-09-07T01:17:56;17.00;;;12.30;;
73678;SDS011;61978;52.742;16.962;2023-09-07T01:20:24;15.00;;;12.00;;
73678;SDS011;61978;52.742;16.962;2023-09-07T01:22:50;20.60;;;12.90;;
73678;SDS011;61978;52.742;16.962;2023-09-07T01:25:16;15.90;;;12.40;;
73678;SDS011;61978;52.742;16.962;2023-09-07T01:27:43;19.40;;;12.60;;
73678;SDS011;61978;52.742;16.962;2023-09-07T01:30:09;16.30;;;11.40;;
73678;SDS011;61978;52.742;16.962;2023-09-07T01:32:39;19.70;;;12.30;;
73678;SDS011;61978;52.742;16.962;2023-09-07T01:35:05;17.20;;;12.60;;
73678;SDS011;61978;52.742;16.962;2023-09-07T01:37:36;15.20;;;11.20;;
73678;SDS011;61978;52.742;16.962;2023-09-07T01:40:03;17.30;;;11.60;;
73678;SDS011;61978;52.742;16.962;2023-09-07T01:42:33;16.40;;;11.70;;
73678;SDS011;61978;52.742;16.962;2023-09-07T01:45:00;16.60;;;11.20;;
73678;SDS011;61978;52.742;16.962;2023-09-07T01:47:25;14.20;;;11.20;;
73678;SDS011;61978;52.742;16.962;2023-09-07T01:49:53;14.90;;;11.40;;
73678;SDS011;61978;52.742;16.962;2023-09-07T01:52:20;21.30;;;11.90;;
73678;SDS011;61978;52.742;16.962;2023-09-07T01:54:45;12.80;;;11.10;;
73678;SDS011;61978;52.742;16.962;2023-09-07T01:57:11;14.70;;;11.00;;
73678;SDS011;61978;52.742;16.962;2023-09-07T01:59:37;16.90;;;10.70;;
73678;SDS011;61978;52.742;16.962;2023-09-07T02:02:03;12.00;;;10.70;;
73678;SDS011;61978;52.742;16.962;2023-09-07T02:04:29;15.00;;;10.20;;
73678;SDS011;61978;52.742;16.962;2023-09-07T02:06:56;15.50;;;11.00;;
73678;SDS011;61978;52.742;16.962;2023-09-07T02:09:21;13.70;;;11.20;;
73678;SDS011;61978;52.742;16.962;2023-09-07T02:11:47;19.20;;;11.60;;
73678;SDS011;61978;52.742;16.962;2023-09-07T02:14:13;11.90;;;10.20;;
73678;SDS011;61978;52.742;16.962;2023-09-07T02:16:39;19.30;;;10.80;;
73678;SDS011;61978;52.742;16.962;2023-09-07T02:19:05;15.20;;;10.00;;
73678;SDS011;61978;52.742;16.962;2023-09-07T02:21:32;13.10;;;10.50;;
73678;SDS011;61978;52.742;16.962;2023-09-07T02:23:58;12.10;;;9.50;;
73678;SDS011;61978;52.742;16.962;2023-09-07T02:26:24;11.30;;;9.00;;
73678;SDS011;61978;52.742;16.962;2023-09-07T02:28:50;11.40;;;8.60;;
73678;SDS011;61978;52.742;16.962;2023-09-07T02:31:16;15.00;;;9.70;;
73678;SDS011;61978;52.742;16.962;2023-09-07T02:33:43;13.20;;;9.30;;
73678;SDS011;61978;52.742;16.962;2023-09-07T02:36:09;13.40;;;8.80;;
73678;SDS011;61978;52.742;16.962;2023-09-07T02:38:35;10.40;;;9.20;;
73678;SDS011;61978;52.742;16.962;2023-09-07T02:41:01;15.00;;;10.20;;
73678;SDS011;61978;52.742;16.962;2023-09-07T02:43:28;12.10;;;9.80;;
73678;SDS011;61978;52.742;16.962;2023-09-07T02:45:56;16.10;;;9.90;;
73678;SDS011;61978;52.742;16.962;2023-09-07T02:48:21;15.00;;;10.30;;
73678;SDS011;61978;52.742;16.962;2023-09-07T02:50:48;15.10;;;9.80;;
73678;SDS011;61978;52.742;16.962;2023-09-07T02:53:16;12.60;;;10.20;;
73678;SDS011;61978;52.742;16.962;2023-09-07T02:55:43;13.90;;;10.90;;
73678;SDS011;61978;52.742;16.962;2023-09-07T02:58:09;13.80;;;10.10;;
73678;SDS011;61978;52.742;16.962;2023-09-07T03:00:35;12.60;;;10.00;;
73678;SDS011;61978;52.742;16.962;2023-09-07T03:03:06;14.60;;;10.10;;
73678;SDS011;61978;52.742;16.962;2023-09-07T03:05:32;17.10;;;10.50;;
73678;SDS011;61978;52.742;16.962;2023-09-07T03:07:58;13.10;;;7.90;;
73678;SDS011;61978;52.742;16.962;2023-09-07T03:10:24;11.70;;;8.40;;
73678;SDS011;61978;52.742;16.962;2023-09-07T03:12:50;10.80;;;8.30;;
73678;SDS011;61978;52.742;16.962;2023-09-07T03:15:17;18.20;;;9.00;;
73678;SDS011;61978;52.742;16.962;2023-09-07T03:17:43;13.80;;;9.70;;
73678;SDS011;61978;52.742;16.962;2023-09-07T03:20:10;16.20;;;10.30;;
73678;SDS011;61978;52.742;16.962;2023-09-07T03:22:41;12.50;;;9.60;;
73678;SDS011;61978;52.742;16.962;2023-09-07T03:25:08;15.40;;;10.90;;
73678;SDS011;61978;52.742;16.962;2023-09-07T03:27:34;12.20;;;9.90;;
73678;SDS011;61978;52.742;16.962;2023-09-07T03:30:00;12.00;;;10.50;;
73678;SDS011;61978;52.742;16.962;2023-09-07T03:32:26;14.00;;;9.60;;
73678;SDS011;61978;52.742;16.962;2023-09-07T03:34:57;12.00;;;8.70;;
73678;SDS011;61978;52.742;16.962;2023-09-07T03:37:23;11.90;;;9.70;;
73678;SDS011;61978;52.742;16.962;2023-09-07T03:39:50;11.10;;;9.80;;
73678;SDS011;61978;52.742;16.962;2023-09-07T03:42:16;20.00;;;10.60;;
73678;SDS011;61978;52.742;16.962;2023-09-07T03:44:41;14.20;;;10.80;;
73678;SDS011;61978;52.742;16.962;2023-09-07T03:47:07;15.30;;;11.30;;
73678;SDS011;61978;52.742;16.962;2023-09-07T03:49:34;15.10;;;12.10;;
73678;SDS011;61978;52.742;16.962;2023-09-07T03:52:00;13.20;;;11.60;;
73678;SDS011;61978;52.742;16.962;2023-09-07T03:54:25;16.70;;;12.00;;
73678;SDS011;61978;52.742;16.962;2023-09-07T03:56:51;14.50;;;11.50;;
73678;SDS011;61978;52.742;16.962;2023-09-07T03:59:17;16.00;;;11.60;;
73678;SDS011;61978;52.742;16.962;2023-09-07T04:01:43;16.90;;;12.10;;
73678;SDS011;61978;52.742;16.962;2023-09-07T04:04:10;19.00;;;11.80;;
73678;SDS011;61978;52.742;16.962;2023-09-07T04:06:37;16.40;;;12.50;;
73678;SDS011;61978;52.742;16.962;2023-09-07T04:09:03;17.60;;;11.70;;
73678;SDS011;61978;52.742;16.962;2023-09-07T04:11:29;17.60;;;11.20;;
73678;SDS011;61978;52.742;16.962;2023-09-07T04:13:56;18.30;;;12.00;;
73678;SDS011;61978;52.742;16.962;2023-09-07T04:16:22;17.20;;;11.40;;
73678;SDS011;61978;52.742;16.962;2023-09-07T04:18:48;14.70;;;12.10;;
73678;SDS011;61978;52.742;16.962;2023-09-07T04:21:15;14.70;;;12.10;;
73678;SDS011;61978;52.742;16.962;2023-09-07T04:23:41;21.60;;;12.60;;
73678;SDS011;61978;52.742;16.962;2023-09-07T04:26:08;17.50;;;13.50;;
73678;SDS011;61978;52.742;16.962;2023-09-07T04:28:35;19.20;;;12.60;;
73678;SDS011;61978;52.742;16.962;2023-09-07T04:31:01;20.30;;;11.90;;
73678;SDS011;61978;52.742;16.962;2023-09-07T04:33:31;17.60;;;12.00;;
73678;SDS011;61978;52.742;16.962;2023-09-07T04:35:57;17.50;;;11.70;;
73678;SDS011;61978;52.742;16.962;2023-09-07T04:38:32;21.20;;;12.20;;
73678;SDS011;61978;52.742;16.962;2023-09-07T04:41:11;19.20;;;12.60;;
73678;SDS011;61978;52.742;16.962;2023-09-07T04:43:37;17.50;;;13.20;;
73678;SDS011;61978;52.742;16.962;2023-09-07T04:46:06;23.70;;;13.20;;
73678;SDS011;61978;52.742;16.962;2023-09-07T04:48:33;22.30;;;12.80;;
73678;SDS011;61978;52.742;16.962;2023-09-07T04:51:00;16.00;;;12.50;;
73678;SDS011;61978;52.742;16.962;2023-09-07T04:53:28;15.60;;;12.70;;
73678;SDS011;61978;52.742;16.962;2023-09-07T04:55:54;15.90;;;12.10;;
73678;SDS011;61978;52.742;16.962;2023-09-07T04:58:19;19.10;;;11.80;;
73678;SDS011;61978;52.742;16.962;2023-09-07T05:00:46;20.80;;;12.40;;
73678;SDS011;61978;52.742;16.962;2023-09-07T05:03:12;17.70;;;12.10;;
73678;SDS011;61978;52.742;16.962;2023-09-07T05:05:38;18.70;;;12.60;;
73678;SDS011;61978;52.742;16.962;2023-09-07T05:08:04;16.10;;;11.60;;
73678;SDS011;61978;52.742;16.962;2023-09-07T05:10:33;16.70;;;11.30;;
73678;SDS011;61978;52.742;16.962;2023-09-07T05:13:00;15.10;;;11.80;;
73678;SDS011;61978;52.742;16.962;2023-09-07T05:15:26;18.30;;;11.30;;
73678;SDS011;61978;52.742;16.962;2023-09-07T05:17:52;23.20;;;12.70;;
73678;SDS011;61978;52.742;16.962;2023-09-07T05:20:18;19.90;;;13.70;;
73678;SDS011;61978;52.742;16.962;2023-09-07T05:22:43;19.20;;;12.10;;
73678;SDS011;61978;52.742;16.962;2023-09-07T05:25:09;17.80;;;13.80;;
73678;SDS011;61978;52.742;16.962;2023-09-07T05:27:36;20.20;;;14.50;;
73678;SDS011;61978;52.742;16.962;2023-09-07T05:30:02;20.70;;;13.40;;
73678;SDS011;61978;52.742;16.962;2023-09-07T05:32:28;17.70;;;13.00;;
73678;SDS011;61978;52.742;16.962;2023-09-07T05:34:54;19.40;;;12.60;;
73678;SDS011;61978;52.742;16.962;2023-09-07T05:37:20;25.90;;;15.30;;
73678;SDS011;61978;52.742;16.962;2023-09-07T05:39:46;27.80;;;16.30;;
73678;SDS011;61978;52.742;16.962;2023-09-07T05:42:13;21.10;;;17.00;;
73678;SDS011;61978;52.742;16.962;2023-09-07T05:44:39;18.60;;;14.50;;
73678;SDS011;61978;52.742;16.962;2023-09-07T05:47:06;16.40;;;14.50;;
73678;SDS011;61978;52.742;16.962;2023-09-07T05:49:32;20.70;;;13.70;;
73678;SDS011;61978;52.742;16.962;2023-09-07T05:51:58;14.10;;;11.70;;
73678;SDS011;61978;52.742;16.962;2023-09-07T05:54:24;14.80;;;11.30;;
73678;SDS011;61978;52.742;16.962;2023-09-07T05:56:50;22.00;;;11.20;;
73678;SDS011;61978;52.742;16.962;2023-09-07T05:59:16;15.20;;;10.00;;
73678;SDS011;61978;52.742;16.962;2023-09-07T06:01:42;12.40;;;9.90;;
73678;SDS011;61978;52.742;16.962;2023-09-07T06:04:08;13.80;;;9.60;;
73678;SDS011;61978;52.742;16.962;2023-09-07T06:06:35;15.80;;;9.30;;
73678;SDS011;61978;52.742;16.962;2023-09-07T06:09:01;11.50;;;9.00;;
73678;SDS011;61978;52.742;16.962;2023-09-07T06:11:29;12.20;;;9.70;;
73678;SDS011;61978;52.742;16.962;2023-09-07T06:13:58;10.60;;;9.10;;
73678;SDS011;61978;52.742;16.962;2023-09-07T06:16:24;15.10;;;8.80;;
73678;SDS011;61978;52.742;16.962;2023-09-07T06:18:49;11.00;;;9.30;;
73678;SDS011;61978;52.742;16.962;2023-09-07T06:21:16;10.30;;;9.20;;
73678;SDS011;61978;52.742;16.962;2023-09-07T06:23:42;11.30;;;9.50;;
73678;SDS011;61978;52.742;16.962;2023-09-07T06:26:09;13.80;;;9.10;;
73678;SDS011;61978;52.742;16.962;2023-09-07T06:28:36;15.10;;;10.50;;
73678;SDS011;61978;52.742;16.962;2023-09-07T06:31:02;13.60;;;9.50;;
73678;SDS011;61978;52.742;16.962;2023-09-07T06:33:28;11.40;;;9.10;;
73678;SDS011;61978;52.742;16.962;2023-09-07T06:35:54;15.10;;;10.50;;
73678;SDS011;61978;52.742;16.962;2023-09-07T06:38:22;16.10;;;10.70;;
73678;SDS011;61978;52.742;16.962;2023-09-07T06:40:48;18.30;;;11.10;;
73678;SDS011;61978;52.742;16.962;2023-09-07T06:43:15;16.70;;;11.20;;
73678;SDS011;61978;52.742;16.962;2023-09-07T06:45:42;12.30;;;10.20;;
73678;SDS011;61978;52.742;16.962;2023-09-07T06:48:08;11.50;;;9.70;;
73678;SDS011;61978;52.742;16.962;2023-09-07T06:50:34;11.60;;;10.20;;
73678;SDS011;61978;52.742;16.962;2023-09-07T06:53:00;14.20;;;10.20;;
73678;SDS011;61978;52.742;16.962;2023-09-07T06:55:26;12.10;;;10.50;;
73678;SDS011;61978;52.742;16.962;2023-09-07T06:57:53;12.60;;;10.40;;
73678;SDS011;61978;52.742;16.962;2023-09-07T07:00:19;15.50;;;9.70;;
73678;SDS011;61978;52.742;16.962;2023-09-07T07:02:47;12.30;;;10.60;;
73678;SDS011;61978;52.742;16.962;2023-09-07T07:05:13;12.30;;;10.30;;
73678;SDS011;61978;52.742;16.962;2023-09-07T07:07:39;11.00;;;9.50;;
73678;SDS011;61978;52.742;16.962;2023-09-07T07:10:06;13.00;;;9.60;;
73678;SDS011;61978;52.742;16.962;2023-09-07T07:12:32;18.30;;;10.60;;
73678;SDS011;61978;52.742;16.962;2023-09-07T07:15:01;12.80;;;9.80;;
73678;SDS011;61978;52.742;16.962;2023-09-07T07:17:27;16.20;;;10.90;;
73678;SDS011;61978;52.742;16.962;2023-09-07T07:19:54;10.90;;;9.60;;
73678;SDS011;61978;52.742;16.962;2023-09-07T07:22:20;17.10;;;10.00;;
73678;SDS011;61978;52.742;16.962;2023-09-07T07:24:47;15.00;;;9.80;;
73678;SDS011;61978;52.742;16.962;2023-09-07T07:27:12;13.70;;;9.30;;
73678;SDS011;61978;52.742;16.962;2023-09-07T07:29:38;13.60;;;10.30;;
73678;SDS011;61978;52.742;16.962;2023-09-07T07:32:04;16.10;;;9.80;;
73678;SDS011;61978;52.742;16.962;2023-09-07T07:34:31;16.20;;;10.60;;
73678;SDS011;61978;52.742;16.962;2023-09-07T07:36:58;17.10;;;9.60;;
73678;SDS011;61978;52.742;16.962;2023-09-07T07:39:24;15.80;;;10.20;;
73678;SDS011;61978;52.742;16.962;2023-09-07T07:41:50;13.70;;;10.00;;
73678;SDS011;61978;52.742;16.962;2023-09-07T07:44:17;13.20;;;9.30;;
73678;SDS011;61978;52.742;16.962;2023-09-07T07:46:44;12.80;;;10.00;;
73678;SDS011;61978;52.742;16.962;2023-09-07T07:49:10;13.80;;;10.10;;
73678;SDS011;61978;52.742;16.962;2023-09-07T07:51:36;11.80;;;10.00;;
73678;SDS011;61978;52.742;16.962;2023-09-07T07:54:03;10.80;;;9.50;;
73678;SDS011;61978;52.742;16.962;2023-09-07T07:56:29;12.90;;;10.50;;
73678;SDS011;61978;52.742;16.962;2023-09-07T07:58:56;17.50;;;10.50;;
73678;SDS011;61978;52.742;16.962;2023-09-07T08:01:23;14.50;;;9.40;;
73678;SDS011;61978;52.742;16.962;2023-09-07T08:03:52;14.90;;;9.30;;
73678;SDS011;61978;52.742;16.962;2023-09-07T08:06:18;16.30;;;9.00;;
73678;SDS011;61978;52.742;16.962;2023-09-07T08:08:45;11.90;;;8.60;;
73678;SDS011;61978;52.742;16.962;2023-09-07T08:11:11;9.10;;;8.00;;
73678;SDS011;61978;52.742;16.962;2023-09-07T08:13:38;14.30;;;8.40;;
73678;SDS011;61978;52.742;16.962;2023-09-07T08:16:07;13.30;;;8.70;;
73678;SDS011;61978;52.742;16.962;2023-09-07T08:18:33;13.80;;;8.20;;
73678;SDS011;61978;52.742;16.962;2023-09-07T08:20:59;12.20;;;8.50;;
73678;SDS011;61978;52.742;16.962;2023-09-07T08:23:26;12.90;;;9.30;;
73678;SDS011;61978;52.742;16.962;2023-09-07T08:25:52;11.80;;;8.90;;
73678;SDS011;61978;52.742;16.962;2023-09-07T08:28:18;14.90;;;8.30;;
73678;SDS011;61978;52.742;16.962;2023-09-07T08:30:47;11.80;;;8.80;;
73678;SDS011;61978;52.742;16.962;2023-09-07T08:33:13;11.60;;;8.90;;
73678;SDS011;61978;52.742;16.962;2023-09-07T08:35:40;11.10;;;8.30;;
73678;SDS011;61978;52.742;16.962;2023-09-07T08:38:10;13.00;;;8.20;;
73678;SDS011;61978;52.742;16.962;2023-09-07T08:40:36;11.30;;;8.00;;
73678;SDS011;61978;52.742;16.962;2023-09-07T08:43:05;10.90;;;7.70;;
73678;SDS011;61978;52.742;16.962;2023-09-07T08:45:37;12.30;;;8.60;;
73678;SDS011;61978;52.742;16.962;2023-09-07T08:48:06;10.40;;;7.40;;
73678;SDS011;61978;52.742;16.962;2023-09-07T08:50:33;15.40;;;8.10;;
73678;SDS011;61978;52.742;16.962;2023-09-07T08:52:59;9.50;;;7.60;;
73678;SDS011;61978;52.742;16.962;2023-09-07T08:55:25;16.50;;;8.20;;
73678;SDS011;61978;52.742;16.962;2023-09-07T08:57:51;12.90;;;7.80;;
73678;SDS011;61978;52.742;16.962;2023-09-07T09:00:17;10.50;;;7.90;;
73678;SDS011;61978;52.742;16.962;2023-09-07T09:02:49;12.80;;;7.90;;
73678;SDS011;61978;52.742;16.962;2023-09-07T09:05:15;13.40;;;8.40;;
73678;SDS011;61978;52.742;16.962;2023-09-07T09:07:44;10.80;;;6.40;;
73678;SDS011;61978;52.742;16.962;2023-09-07T09:10:10;10.60;;;7.20;;
73678;SDS011;61978;52.742;16.962;2023-09-07T09:12:44;11.60;;;7.10;;
73678;SDS011;61978;52.742;16.962;2023-09-07T09:15:10;8.00;;;6.60;;
73678;SDS011;61978;52.742;16.962;2023-09-07T09:17:38;9.00;;;6.50;;
73678;SDS011;61978;52.742;16.962;2023-09-07T09:20:03;13.00;;;7.20;;
73678;SDS011;61978;52.742;16.962;2023-09-07T09:22:35;16.00;;;6.10;;
73678;SDS011;61978;52.742;16.962;2023-09-07T09:25:04;10.70;;;6.90;;
73678;SDS011;61978;52.742;16.962;2023-09-07T09:27:31;8.80;;;6.50;;
73678;SDS011;61978;52.742;16.962;2023-09-07T09:29:56;8.00;;;5.70;;
73678;SDS011;61978;52.742;16.962;2023-09-07T09:32:24;10.40;;;5.50;;
73678;SDS011;61978;52.742;16.962;2023-09-07T09:34:50;13.60;;;5.80;;
73678;SDS011;61978;52.742;16.962;2023-09-07T09:37:17;10.40;;;5.70;;
73678;SDS011;61978;52.742;16.962;2023-09-07T09:39:48;10.70;;;5.00;;
73678;SDS011;61978;52.742;16.962;2023-09-07T09:42:14;15.60;;;6.50;;
73678;SDS011;61978;52.742;16.962;2023-09-07T09:44:40;13.40;;;5.80;;
73678;SDS011;61978;52.742;16.962;2023-09-07T09:47:06;10.80;;;6.40;;
73678;SDS011;61978;52.742;16.962;2023-09-07T09:49:34;8.20;;;4.60;;
73678;SDS011;61978;52.742;16.962;2023-09-07T09:52:00;7.80;;;4.80;;
73678;SDS011;61978;52.742;16.962;2023-09-07T09:54:26;10.10;;;6.10;;
73678;SDS011;61978;52.742;16.962;2023-09-07T09:56:53;8.00;;;5.30;;
73678;SDS011;61978;52.742;16.962;2023-09-07T09:59:19;10.10;;;4.60;;
73678;SDS011;61978;52.742;16.962;2023-09-07T10:01:46;6.00;;;3.60;;
73678;SDS011;61978;52.742;16.962;2023-09-07T10:04:13;6.90;;;3.90;;
73678;SDS011;61978;52.742;16.962;2023-09-07T10:06:49;5.40;;;4.00;;
73678;SDS011;61978;52.742;16.962;2023-09-07T10:09:16;8.30;;;4.10;;
73678;SDS011;61978;52.742;16.962;2023-09-07T10:11:50;5.60;;;3.60;;
73678;SDS011;61978;52.742;16.962;2023-09-07T10:14:16;8.90;;;4.50;;
73678;SDS011;61978;52.742;16.962;2023-09-07T10:16:43;8.90;;;4.20;;
73678;SDS011;61978;52.742;16.962;2023-09-07T10:21:44;5.10;;;4.10;;
73678;SDS011;61978;52.742;16.962;2023-09-07T10:24:10;9.90;;;3.70;;
73678;SDS011;61978;52.742;16.962;2023-09-07T10:26:37;10.00;;;3.70;;
73678;SDS011;61978;52.742;16.962;2023-09-07T10:29:04;11.40;;;3.90;;
73678;SDS011;61978;52.742;16.962;2023-09-07T10:31:31;5.00;;;3.40;;
73678;SDS011;61978;52.742;16.962;2023-09-07T10:34:07;8.50;;;3.50;;
73678;SDS011;61978;52.742;16.962;2023-09-07T10:36:33;8.90;;;3.90;;
73678;SDS011;61978;52.742;16.962;2023-09-07T10:38:59;5.50;;;3.60;;
73678;SDS011;61978;52.742;16.962;2023-09-07T10:41:25;5.20;;;3.30;;
73678;SDS011;61978;52.742;16.962;2023-09-07T10:43:52;7.30;;;3.50;;
73678;SDS011;61978;52.742;16.962;2023-09-07T10:46:22;5.40;;;3.40;;
73678;SDS011;61978;52.742;16.962;2023-09-07T10:48:52;5.70;;;3.30;;
73678;SDS011;61978;52.742;16.962;2023-09-07T10:51:19;4.50;;;3.50;;
73678;SDS011;61978;52.742;16.962;2023-09-07T10:53:45;5.00;;;3.50;;
73678;SDS011;61978;52.742;16.962;2023-09-07T10:56:11;5.20;;;3.80;;
73678;SDS011;61978;52.742;16.962;2023-09-07T10:58:38;4.40;;;3.50;;
73678;SDS011;61978;52.742;16.962;2023-09-07T11:01:06;5.70;;;3.30;;
73678;SDS011;61978;52.742;16.962;2023-09-07T11:03:33;4.60;;;3.40;;
73678;SDS011;61978;52.742;16.962;2023-09-07T11:09:00;4.70;;;4.10;;
73678;SDS011;61978;52.742;16.962;2023-09-07T11:11:34;5.40;;;3.30;;
73678;SDS011;61978;52.742;16.962;2023-09-07T11:14:04;5.30;;;3.60;;
73678;SDS011;61978;52.742;16.962;2023-09-07T11:16:33;6.00;;;3.50;;
73678;SDS011;61978;52.742;16.962;2023-09-07T11:19:03;5.60;;;3.60;;
73678;SDS011;61978;52.742;16.962;2023-09-07T11:21:30;7.80;;;3.70;;
73678;SDS011;61978;52.742;16.962;2023-09-07T11:23:58;8.10;;;4.10;;
73678;SDS011;61978;52.742;16.962;2023-09-07T11:26:24;7.40;;;3.90;;
73678;SDS011;61978;52.742;16.962;2023-09-07T11:28:50;5.20;;;4.10;;
73678;SDS011;61978;52.742;16.962;2023-09-07T11:31:19;6.80;;;3.80;;
73678;SDS011;61978;52.742;16.962;2023-09-07T11:33:47;6.30;;;4.00;;
73678;SDS011;61978;52.742;16.962;2023-09-07T11:36:14;4.40;;;3.60;;
73678;SDS011;61978;52.742;16.962;2023-09-07T11:38:41;7.10;;;3.40;;
73678;SDS011;61978;52.742;16.962;2023-09-07T11:41:08;4.20;;;3.50;;
73678;SDS011;61978;52.742;16.962;2023-09-07T11:43:34;6.30;;;3.50;;
73678;SDS011;61978;52.742;16.962;2023-09-07T11:46:00;6.00;;;3.50;;
73678;SDS011;61978;52.742;16.962;2023-09-07T11:48:27;6.40;;;3.20;;
73678;SDS011;61978;52.742;16.962;2023-09-07T11:50:54;5.00;;;3.80;;
73678;SDS011;61978;52.742;16.962;2023-09-07T11:53:21;5.80;;;3.30;;
73678;SDS011;61978;52.742;16.962;2023-09-07T11:55:47;6.00;;;3.50;;
73678;SDS011;61978;52.742;16.962;2023-09-07T11:58:13;6.20;;;3.70;;
73678;SDS011;61978;52.742;16.962;2023-09-07T12:00:39;7.30;;;3.70;;
73678;SDS011;61978;52.742;16.962;2023-09-07T12:03:08;4.20;;;3.40;;
73678;SDS011;61978;52.742;16.962;2023-09-07T12:05:33;11.30;;;4.30;;
73678;SDS011;61978;52.742;16.962;2023-09-07T12:07:59;4.90;;;3.00;;
73678;SDS011;61978;52.742;16.962;2023-09-07T12:10:25;5.50;;;3.50;;
73678;SDS011;61978;52.742;16.962;2023-09-07T12:12:51;6.80;;;3.30;;
73678;SDS011;61978;52.742;16.962;2023-09-07T12:15:17;3.60;;;3.20;;
73678;SDS011;61978;52.742;16.962;2023-09-07T12:17:43;5.80;;;2.90;;
73678;SDS011;61978;52.742;16.962;2023-09-07T12:20:09;4.80;;;3.50;;
73678;SDS011;61978;52.742;16.962;2023-09-07T12:22:36;3.10;;;2.80;;
73678;SDS011;61978;52.742;16.962;2023-09-07T12:25:06;6.60;;;3.10;;
73678;SDS011;61978;52.742;16.962;2023-09-07T12:27:33;8.70;;;3.20;;
73678;SDS011;61978;52.742;16.962;2023-09-07T12:30:02;3.70;;;2.60;;
73678;SDS011;61978;52.742;16.962;2023-09-07T12:32:32;6.00;;;3.30;;
73678;SDS011;61978;52.742;16.962;2023-09-07T12:34:59;7.50;;;3.60;;
73678;SDS011;61978;52.742;16.962;2023-09-07T12:37:25;7.10;;;3.10;;
73678;SDS011;61978;52.742;16.962;2023-09-07T12:39:51;5.30;;;3.80;;
73678;SDS011;61978;52.742;16.962;2023-09-07T12:42:17;7.20;;;3.50;;
73678;SDS011;61978;52.742;16.962;2023-09-07T12:44:43;4.50;;;2.70;;
73678;SDS011;61978;52.742;16.962;2023-09-07T12:47:09;6.10;;;2.90;;
73678;SDS011;61978;52.742;16.962;2023-09-07T12:49:35;6.00;;;3.00;;
73678;SDS011;61978;52.742;16.962;2023-09-07T12:52:01;4.10;;;3.00;;
73678;SDS011;61978;52.742;16.962;2023-09-07T12:54:34;7.00;;;3.20;;
73678;SDS011;61978;52.742;16.962;2023-09-07T12:57:04;10.00;;;3.80;;
73678;SDS011;61978;52.742;16.962;2023-09-07T12:59:30;9.40;;;2.80;;
73678;SDS011;61978;52.742;16.962;2023-09-07T13:01:56;7.10;;;3.00;;
73678;SDS011;61978;52.742;16.962;2023-09-07T13:04:23;7.50;;;2.60;;
73678;SDS011;61978;52.742;16.962;2023-09-07T13:06:49;3.60;;;2.90;;
73678;SDS011;61978;52.742;16.962;2023-09-07T13:09:16;5.30;;;3.30;;
73678;SDS011;61978;52.742;16.962;2023-09-07T13:11:42;4.50;;;2.80;;
73678;SDS011;61978;52.742;16.962;2023-09-07T13:14:08;7.20;;;3.30;;
73678;SDS011;61978;52.742;16.962;2023-09-07T13:16:34;3.90;;;3.10;;
73678;SDS011;61978;52.742;16.962;2023-09-07T13:19:00;5.30;;;2.50;;
73678;SDS011;61978;52.742;16.962;2023-09-07T13:21:28;10.30;;;2.90;;
73678;SDS011;61978;52.742;16.962;2023-09-07T13:23:54;4.60;;;2.70;;
73678;SDS011;61978;52.742;16.962;2023-09-07T13:26:20;7.40;;;3.30;;
73678;SDS011;61978;52.742;16.962;2023-09-07T13:28:47;7.00;;;3.00;;
73678;SDS011;61978;52.742;16.962;2023-09-07T13:31:13;10.30;;;2.80;;
73678;SDS011;61978;52.742;16.962;2023-09-07T13:33:39;6.30;;;2.40;;
73678;SDS011;61978;52.742;16.962;2023-09-07T13:36:06;4.70;;;2.30;;
73678;SDS011;61978;52.742;16.962;2023-09-07T13:38:33;3.30;;;2.70;;
73678;SDS011;61978;52.742;16.962;2023-09-07T13:40:59;9.90;;;2.90;;
73678;SDS011;61978;52.742;16.962;2023-09-07T13:43:24;3.00;;;2.70;;
73678;SDS011;61978;52.742;16.962;2023-09-07T13:45:51;12.10;;;3.10;;
73678;SDS011;61978;52.742;16.962;2023-09-07T13:48:18;5.70;;;3.10;;
73678;SDS011;61978;52.742;16.962;2023-09-07T13:50:45;4.10;;;2.70;;
73678;SDS011;61978;52.742;16.962;2023-09-07T13:53:11;3.40;;;2.60;;
73678;SDS011;61978;52.742;16.962;2023-09-07T13:55:37;6.90;;;3.60;;
73678;SDS011;61978;52.742;16.962;2023-09-07T13:58:05;3.90;;;2.80;;
73678;SDS011;61978;52.742;16.962;2023-09-07T14:00:33;5.00;;;2.70;;
73678;SDS011;61978;52.742;16.962;2023-09-07T14:02:59;5.30;;;2.80;;
73678;SDS011;61978;52.742;16.962;2023-09-07T14:05:26;4.30;;;2.50;;
73678;SDS011;61978;52.742;16.962;2023-09-07T14:07:53;7.00;;;3.10;;
73678;SDS011;61978;52.742;16.962;2023-09-07T14:10:20;4.50;;;3.00;;
73678;SDS011;61978;52.742;16.962;2023-09-07T14:12:51;3.60;;;2.70;;
73678;SDS011;61978;52.742;16.962;2023-09-07T14:15:17;7.00;;;2.80;;
73678;SDS011;61978;52.742;16.962;2023-09-07T14:17:43;5.80;;;3.00;;
73678;SDS011;61978;52.742;16.962;2023-09-07T14:20:09;5.70;;;3.30;;
73678;SDS011;61978;52.742;16.962;2023-09-07T14:22:36;5.80;;;3.00;;
73678;SDS011;61978;52.742;16.962;2023-09-07T14:25:05;3.60;;;2.50;;
73678;SDS011;61978;52.742;16.962;2023-09-07T14:27:33;4.60;;;2.90;;